sensor_id;sensor_type;location;lat;lon;timestamp;P1;durP1;ratioP1;P2;durP2;ratioP2
5604;SDS011;9297;47.258;11.362;2023-12-14T00:02:04;5.27;;;4.90;;
5604;SDS011;9297;47.258;11.362;2023-12-14T00:04:31;5.20;;;4.80;;
5604;SDS011;9297;47.258;11.362;2023-12-14T00:06:58;5.23;;;4.43;;
5604;SDS011;9297;47.258;11.362;2023-12-14T00:09:25;4.87;;;4.30;;
5604;SDS011;9297;47.258;11.362;2023-12-14T00:11:52;6.20;;;5.67;;
5604;SDS011;9297;47.258;11.362;2023-12-14T00:14:19;5.53;;;5.03;;
5604;SDS011;9297;47.258;11.362;2023-12-14T00:16:46;5.67;;;4.97;;
5604;SDS011;9297;47.258;11.362;2023-12-14T00:19:18;5.87;;;5.27;;
5604;SDS011;9297;47.258;11.362;2023-12-14T00:21:45;5.40;;;4.90;;
5604;SDS011;9297;47.258;11.362;2023-12-14T00:24:12;5.27;;;4.87;;
5604;SDS011;9297;47.258;11.362;2023-12-14T00:26:48;6.17;;;5.43;;
5604;SDS011;9297;47.258;11.362;2023-12-14T00:29:15;7.30;;;5.23;;
5604;SDS011;9297;47.258;11.362;2023-12-14T00:31:43;5.27;;;4.77;;
5604;SDS011;9297;47.258;11.362;2023-12-14T00:34:10;5.23;;;4.77;;
5604;SDS011;9297;47.258;11.362;2023-12-14T00:36:39;5.53;;;5.03;;
5604;SDS011;9297;47.258;11.362;2023-12-14T00:39:06;5.70;;;5.03;;
5604;SDS011;9297;47.258;11.362;2023-12-14T00:41:33;5.70;;;5.20;;
5604;SDS011;9297;47.258;11.362;2023-12-14T00:44:00;6.23;;;5.63;;
5604;SDS011;9297;47.258;11.362;2023-12-14T00:46:27;5.70;;;4.97;;
5604;SDS011;9297;47.258;11.362;2023-12-14T00:48:55;5.80;;;5.30;;
5604;SDS011;9297;47.258;11.362;2023-12-14T00:51:22;6.27;;;5.77;;
5604;SDS011;9297;47.258;11.362;2023-12-14T00:53:50;5.97;;;5.37;;
5604;SDS011;9297;47.258;11.362;2023-12-14T00:56:17;6.27;;;5.67;;
5604;SDS011;9297;47.258;11.362;2023-12-14T00:58:47;5.10;;;4.60;;
5604;SDS011;9297;47.258;11.362;2023-12-14T01:01:14;7.80;;;5.67;;
5604;SDS011;9297;47.258;11.362;2023-12-14T01:03:41;6.00;;;5.40;;
5604;SDS011;9297;47.258;11.362;2023-12-14T01:06:09;6.97;;;6.27;;
5604;SDS011;9297;47.258;11.362;2023-12-14T01:08:36;6.57;;;5.67;;
5604;SDS011;9297;47.258;11.362;2023-12-14T01:11:05;6.53;;;5.93;;
5604;SDS011;9297;47.258;11.362;2023-12-14T01:13:32;6.27;;;5.77;;
5604;SDS011;9297;47.258;11.362;2023-12-14T01:15:59;5.50;;;5.10;;
5604;SDS011;9297;47.258;11.362;2023-12-14T01:18:26;6.57;;;5.10;;
5604;SDS011;9297;47.258;11.362;2023-12-14T01:20:53;6.80;;;5.90;;
5604;SDS011;9297;47.258;11.362;2023-12-14T01:23:21;5.90;;;5.30;;
5604;SDS011;9297;47.258;11.362;2023-12-14T01:25:48;5.97;;;5.47;;
5604;SDS011;9297;47.258;11.362;2023-12-14T01:28:17;5.50;;;5.03;;
5604;SDS011;9297;47.258;11.362;2023-12-14T01:30:43;6.70;;;5.37;;
5604;SDS011;9297;47.258;11.362;2023-12-14T01:33:11;5.30;;;4.80;;
5604;SDS011;9297;47.258;11.362;2023-12-14T01:35:39;5.97;;;5.37;;
5604;SDS011;9297;47.258;11.362;2023-12-14T01:38:05;6.57;;;4.93;;
5604;SDS011;9297;47.258;11.362;2023-12-14T01:40:33;5.97;;;5.00;;
5604;SDS011;9297;47.258;11.362;2023-12-14T01:43:06;8.17;;;5.40;;
5604;SDS011;9297;47.258;11.362;2023-12-14T01:45:35;5.80;;;5.30;;
5604;SDS011;9297;47.258;11.362;2023-12-14T01:48:03;5.97;;;5.40;;
5604;SDS011;9297;47.258;11.362;2023-12-14T01:50:30;5.03;;;4.63;;
5604;SDS011;9297;47.258;11.362;2023-12-14T01:52:57;6.33;;;5.37;;
5604;SDS011;9297;47.258;11.362;2023-12-14T01:55:24;6.20;;;5.70;;
5604;SDS011;9297;47.258;11.362;2023-12-14T01:57:51;4.90;;;4.40;;
5604;SDS011;9297;47.258;11.362;2023-12-14T02:00:20;5.23;;;4.83;;
5604;SDS011;9297;47.258;11.362;2023-12-14T02:02:56;5.37;;;4.87;;
5604;SDS011;9297;47.258;11.362;2023-12-14T02:05:23;5.50;;;5.00;;
5604;SDS011;9297;47.258;11.362;2023-12-14T02:07:50;5.27;;;4.87;;
5604;SDS011;9297;47.258;11.362;2023-12-14T02:10:17;5.40;;;5.00;;
5604;SDS011;9297;47.258;11.362;2023-12-14T02:12:44;5.13;;;4.70;;
5604;SDS011;9297;47.258;11.362;2023-12-14T02:15:11;4.83;;;4.43;;
5604;SDS011;9297;47.258;11.362;2023-12-14T02:17:38;4.97;;;4.57;;
5604;SDS011;9297;47.258;11.362;2023-12-14T02:20:07;4.80;;;4.40;;
5604;SDS011;9297;47.258;11.362;2023-12-14T02:22:47;5.50;;;5.10;;
5604;SDS011;9297;47.258;11.362;2023-12-14T02:25:15;5.23;;;4.80;;
5604;SDS011;9297;47.258;11.362;2023-12-14T02:27:42;6.00;;;5.40;;
5604;SDS011;9297;47.258;11.362;2023-12-14T02:30:10;5.63;;;5.00;;
5604;SDS011;9297;47.258;11.362;2023-12-14T02:32:38;5.40;;;5.00;;
5604;SDS011;9297;47.258;11.362;2023-12-14T02:35:05;5.10;;;4.70;;
5604;SDS011;9297;47.258;11.362;2023-12-14T02:37:33;5.33;;;4.93;;
5604;SDS011;9297;47.258;11.362;2023-12-14T02:40:03;4.50;;;3.97;;
5604;SDS011;9297;47.258;11.362;2023-12-14T02:42:31;5.00;;;4.60;;
5604;SDS011;9297;47.258;11.362;2023-12-14T02:44:58;4.53;;;4.23;;
5604;SDS011;9297;47.258;11.362;2023-12-14T02:47:25;5.17;;;4.13;;
5604;SDS011;9297;47.258;11.362;2023-12-14T02:49:52;5.63;;;4.23;;
5604;SDS011;9297;47.258;11.362;2023-12-14T02:52:19;4.13;;;3.83;;
5604;SDS011;9297;47.258;11.362;2023-12-14T02:54:47;5.03;;;4.63;;
5604;SDS011;9297;47.258;11.362;2023-12-14T02:57:15;5.57;;;4.87;;
5604;SDS011;9297;47.258;11.362;2023-12-14T02:59:42;4.63;;;4.33;;
5604;SDS011;9297;47.258;11.362;2023-12-14T03:02:09;4.20;;;3.90;;
5604;SDS011;9297;47.258;11.362;2023-12-14T03:04:37;4.97;;;4.47;;
5604;SDS011;9297;47.258;11.362;2023-12-14T03:07:04;4.53;;;4.23;;
5604;SDS011;9297;47.258;11.362;2023-12-14T03:09:31;4.63;;;4.27;;
5604;SDS011;9297;47.258;11.362;2023-12-14T03:11:59;4.97;;;4.57;;
5604;SDS011;9297;47.258;11.362;2023-12-14T03:14:31;5.47;;;5.00;;
5604;SDS011;9297;47.258;11.362;2023-12-14T03:16:59;5.77;;;3.93;;
5604;SDS011;9297;47.258;11.362;2023-12-14T03:19:26;4.60;;;4.07;;
5604;SDS011;9297;47.258;11.362;2023-12-14T03:21:53;4.80;;;4.40;;
5604;SDS011;9297;47.258;11.362;2023-12-14T03:24:20;4.80;;;4.37;;
5604;SDS011;9297;47.258;11.362;2023-12-14T03:26:47;4.83;;;4.43;;
5604;SDS011;9297;47.258;11.362;2023-12-14T03:29:15;5.37;;;4.97;;
5604;SDS011;9297;47.258;11.362;2023-12-14T03:31:44;4.83;;;4.53;;
5604;SDS011;9297;47.258;11.362;2023-12-14T03:34:11;5.07;;;4.57;;
5604;SDS011;9297;47.258;11.362;2023-12-14T03:36:38;4.50;;;4.20;;
5604;SDS011;9297;47.258;11.362;2023-12-14T03:39:06;4.70;;;4.30;;
5604;SDS011;9297;47.258;11.362;2023-12-14T03:41:32;5.60;;;5.10;;
5604;SDS011;9297;47.258;11.362;2023-12-14T03:44:00;5.00;;;4.57;;
5604;SDS011;9297;47.258;11.362;2023-12-14T03:46:27;5.53;;;5.07;;
5604;SDS011;9297;47.258;11.362;2023-12-14T03:48:55;5.90;;;5.30;;
5604;SDS011;9297;47.258;11.362;2023-12-14T03:51:23;5.87;;;5.30;;
5604;SDS011;9297;47.258;11.362;2023-12-14T03:53:50;7.13;;;5.63;;
5604;SDS011;9297;47.258;11.362;2023-12-14T03:56:17;7.33;;;6.03;;
5604;SDS011;9297;47.258;11.362;2023-12-14T03:58:44;5.33;;;4.90;;
5604;SDS011;9297;47.258;11.362;2023-12-14T04:01:15;6.80;;;5.53;;
5604;SDS011;9297;47.258;11.362;2023-12-14T04:03:43;6.50;;;5.67;;
5604;SDS011;9297;47.258;11.362;2023-12-14T04:06:12;5.80;;;5.07;;
5604;SDS011;9297;47.258;11.362;2023-12-14T04:08:39;7.07;;;5.97;;
5604;SDS011;9297;47.258;11.362;2023-12-14T04:11:07;5.50;;;5.10;;
5604;SDS011;9297;47.258;11.362;2023-12-14T04:13:34;6.67;;;5.97;;
5604;SDS011;9297;47.258;11.362;2023-12-14T04:16:01;6.27;;;5.67;;
5604;SDS011;9297;47.258;11.362;2023-12-14T04:18:29;6.93;;;6.07;;
5604;SDS011;9297;47.258;11.362;2023-12-14T04:20:56;6.30;;;5.70;;
5604;SDS011;9297;47.258;11.362;2023-12-14T04:23:24;6.90;;;6.20;;
5604;SDS011;9297;47.258;11.362;2023-12-14T04:25:51;6.57;;;5.87;;
5604;SDS011;9297;47.258;11.362;2023-12-14T04:28:19;6.53;;;5.80;;
5604;SDS011;9297;47.258;11.362;2023-12-14T04:30:46;7.73;;;6.93;;
5604;SDS011;9297;47.258;11.362;2023-12-14T04:33:13;7.70;;;6.33;;
5604;SDS011;9297;47.258;11.362;2023-12-14T04:35:40;6.97;;;6.37;;
5604;SDS011;9297;47.258;11.362;2023-12-14T04:38:07;7.13;;;6.47;;
5604;SDS011;9297;47.258;11.362;2023-12-14T04:40:35;7.87;;;7.17;;
5604;SDS011;9297;47.258;11.362;2023-12-14T04:43:02;6.87;;;6.03;;
5604;SDS011;9297;47.258;11.362;2023-12-14T04:45:29;7.23;;;6.37;;
5604;SDS011;9297;47.258;11.362;2023-12-14T04:47:56;9.57;;;7.57;;
5604;SDS011;9297;47.258;11.362;2023-12-14T04:50:24;7.33;;;6.17;;
5604;SDS011;9297;47.258;11.362;2023-12-14T04:52:51;7.50;;;6.80;;
5604;SDS011;9297;47.258;11.362;2023-12-14T04:55:18;7.83;;;6.33;;
5604;SDS011;9297;47.258;11.362;2023-12-14T04:57:46;7.27;;;6.57;;
5604;SDS011;9297;47.258;11.362;2023-12-14T05:00:14;7.80;;;7.00;;
5604;SDS011;9297;47.258;11.362;2023-12-14T05:02:45;9.40;;;7.60;;
5604;SDS011;9297;47.258;11.362;2023-12-14T05:05:13;8.97;;;8.00;;
5604;SDS011;9297;47.258;11.362;2023-12-14T05:07:40;11.53;;;8.07;;
5604;SDS011;9297;47.258;11.362;2023-12-14T05:10:07;7.43;;;6.70;;
5604;SDS011;9297;47.258;11.362;2023-12-14T05:12:34;7.57;;;6.80;;
5604;SDS011;9297;47.258;11.362;2023-12-14T05:15:04;7.60;;;6.80;;
5604;SDS011;9297;47.258;11.362;2023-12-14T05:17:31;9.67;;;7.80;;
5604;SDS011;9297;47.258;11.362;2023-12-14T05:19:59;11.80;;;8.60;;
5604;SDS011;9297;47.258;11.362;2023-12-14T05:22:26;12.27;;;9.63;;
5604;SDS011;9297;47.258;11.362;2023-12-14T05:24:53;13.50;;;9.93;;
5604;SDS011;9297;47.258;11.362;2023-12-14T05:27:20;10.43;;;9.03;;
5604;SDS011;9297;47.258;11.362;2023-12-14T05:29:47;12.33;;;9.30;;
5604;SDS011;9297;47.258;11.362;2023-12-14T05:32:16;13.77;;;9.70;;
5604;SDS011;9297;47.258;11.362;2023-12-14T05:34:43;11.50;;;8.80;;
5604;SDS011;9297;47.258;11.362;2023-12-14T05:37:10;10.57;;;8.57;;
5604;SDS011;9297;47.258;11.362;2023-12-14T05:39:40;9.70;;;8.13;;
5604;SDS011;9297;47.258;11.362;2023-12-14T05:42:07;9.33;;;8.40;;
5604;SDS011;9297;47.258;11.362;2023-12-14T05:44:34;9.20;;;7.90;;
5604;SDS011;9297;47.258;11.362;2023-12-14T05:47:01;10.90;;;8.53;;
5604;SDS011;9297;47.258;11.362;2023-12-14T05:49:30;9.33;;;8.33;;
5604;SDS011;9297;47.258;11.362;2023-12-14T05:51:58;11.07;;;8.60;;
5604;SDS011;9297;47.258;11.362;2023-12-14T05:54:26;9.70;;;7.90;;
5604;SDS011;9297;47.258;11.362;2023-12-14T05:56:53;8.73;;;7.83;;
5604;SDS011;9297;47.258;11.362;2023-12-14T05:59:20;10.70;;;8.30;;
5604;SDS011;9297;47.258;11.362;2023-12-14T06:01:47;10.20;;;8.70;;
5604;SDS011;9297;47.258;11.362;2023-12-14T06:04:14;12.40;;;9.00;;
5604;SDS011;9297;47.258;11.362;2023-12-14T06:06:43;11.10;;;9.07;;
5604;SDS011;9297;47.258;11.362;2023-12-14T06:09:10;11.40;;;9.37;;
5604;SDS011;9297;47.258;11.362;2023-12-14T06:11:37;10.67;;;6.83;;
5604;SDS011;9297;47.258;11.362;2023-12-14T06:14:04;12.87;;;9.73;;
5604;SDS011;9297;47.258;11.362;2023-12-14T06:16:31;10.80;;;8.47;;
5604;SDS011;9297;47.258;11.362;2023-12-14T06:18:58;9.23;;;7.57;;
5604;SDS011;9297;47.258;11.362;2023-12-14T06:21:26;8.77;;;7.33;;
5604;SDS011;9297;47.258;11.362;2023-12-14T06:23:54;7.40;;;6.60;;
5604;SDS011;9297;47.258;11.362;2023-12-14T06:26:21;8.47;;;7.10;;
5604;SDS011;9297;47.258;11.362;2023-12-14T06:28:48;10.10;;;7.43;;
5604;SDS011;9297;47.258;11.362;2023-12-14T06:31:15;8.23;;;7.30;;
5604;SDS011;9297;47.258;11.362;2023-12-14T06:33:43;8.80;;;7.83;;
5604;SDS011;9297;47.258;11.362;2023-12-14T06:36:11;8.90;;;7.50;;
5604;SDS011;9297;47.258;11.362;2023-12-14T06:38:38;11.33;;;8.33;;
5604;SDS011;9297;47.258;11.362;2023-12-14T06:41:07;8.40;;;7.47;;
5604;SDS011;9297;47.258;11.362;2023-12-14T06:43:34;9.20;;;7.70;;
5604;SDS011;9297;47.258;11.362;2023-12-14T06:46:01;10.00;;;7.57;;
5604;SDS011;9297;47.258;11.362;2023-12-14T06:48:28;10.43;;;8.13;;
5604;SDS011;9297;47.258;11.362;2023-12-14T06:50:55;10.20;;;8.30;;
5604;SDS011;9297;47.258;11.362;2023-12-14T06:53:22;12.17;;;8.87;;
5604;SDS011;9297;47.258;11.362;2023-12-14T06:55:49;11.57;;;9.03;;
5604;SDS011;9297;47.258;11.362;2023-12-14T06:58:18;11.50;;;8.77;;
5604;SDS011;9297;47.258;11.362;2023-12-14T07:00:45;13.57;;;8.97;;
5604;SDS011;9297;47.258;11.362;2023-12-14T07:03:12;13.90;;;9.73;;
5604;SDS011;9297;47.258;11.362;2023-12-14T07:05:41;14.43;;;8.60;;
5604;SDS011;9297;47.258;11.362;2023-12-14T07:08:08;11.20;;;8.70;;
5604;SDS011;9297;47.258;11.362;2023-12-14T07:10:35;12.07;;;9.20;;
5604;SDS011;9297;47.258;11.362;2023-12-14T07:13:02;13.23;;;8.87;;
5604;SDS011;9297;47.258;11.362;2023-12-14T07:15:31;9.90;;;7.93;;
5604;SDS011;9297;47.258;11.362;2023-12-14T07:17:58;11.53;;;9.50;;
5604;SDS011;9297;47.258;11.362;2023-12-14T07:20:25;12.93;;;9.80;;
5604;SDS011;9297;47.258;11.362;2023-12-14T07:22:52;14.73;;;10.33;;
5604;SDS011;9297;47.258;11.362;2023-12-14T07:25:19;12.40;;;9.73;;
5604;SDS011;9297;47.258;11.362;2023-12-14T07:27:46;12.37;;;9.70;;
5604;SDS011;9297;47.258;11.362;2023-12-14T07:30:13;12.97;;;9.17;;
5604;SDS011;9297;47.258;11.362;2023-12-14T07:32:41;14.67;;;10.33;;
5604;SDS011;9297;47.258;11.362;2023-12-14T07:35:09;11.67;;;9.53;;
5604;SDS011;9297;47.258;11.362;2023-12-14T07:37:36;14.97;;;9.67;;
5604;SDS011;9297;47.258;11.362;2023-12-14T07:40:03;14.80;;;10.37;;
5604;SDS011;9297;47.258;11.362;2023-12-14T07:42:31;17.57;;;9.30;;
5604;SDS011;9297;47.258;11.362;2023-12-14T07:44:58;12.20;;;8.90;;
5604;SDS011;9297;47.258;11.362;2023-12-14T07:47:25;12.70;;;9.23;;
5604;SDS011;9297;47.258;11.362;2023-12-14T07:49:54;14.00;;;10.03;;
5604;SDS011;9297;47.258;11.362;2023-12-14T07:52:21;12.37;;;9.87;;
5604;SDS011;9297;47.258;11.362;2023-12-14T07:54:48;13.90;;;9.80;;
5604;SDS011;9297;47.258;11.362;2023-12-14T07:57:15;12.63;;;9.50;;
5604;SDS011;9297;47.258;11.362;2023-12-14T07:59:42;16.03;;;10.13;;
5604;SDS011;9297;47.258;11.362;2023-12-14T08:02:09;14.30;;;10.33;;
5604;SDS011;9297;47.258;11.362;2023-12-14T08:04:36;15.67;;;10.13;;
5604;SDS011;9297;47.258;11.362;2023-12-14T08:07:04;14.27;;;9.50;;
5604;SDS011;9297;47.258;11.362;2023-12-14T08:09:31;14.67;;;10.47;;
5604;SDS011;9297;47.258;11.362;2023-12-14T08:11:59;14.23;;;10.17;;
5604;SDS011;9297;47.258;11.362;2023-12-14T08:14:25;13.90;;;11.07;;
5604;SDS011;9297;47.258;11.362;2023-12-14T08:16:52;25.60;;;19.17;;
5604;SDS011;9297;47.258;11.362;2023-12-14T08:19:20;27.43;;;18.30;;
5604;SDS011;9297;47.258;11.362;2023-12-14T08:21:47;20.73;;;14.67;;
5604;SDS011;9297;47.258;11.362;2023-12-14T08:24:15;17.07;;;12.13;;
5604;SDS011;9297;47.258;11.362;2023-12-14T08:26:42;17.40;;;10.90;;
5604;SDS011;9297;47.258;11.362;2023-12-14T08:29:09;15.27;;;10.77;;
5604;SDS011;9297;47.258;11.362;2023-12-14T08:31:36;11.37;;;8.73;;
5604;SDS011;9297;47.258;11.362;2023-12-14T08:34:04;14.23;;;9.83;;
5604;SDS011;9297;47.258;11.362;2023-12-14T08:36:31;12.03;;;9.53;;
5604;SDS011;9297;47.258;11.362;2023-12-14T08:38:58;15.70;;;10.23;;
5604;SDS011;9297;47.258;11.362;2023-12-14T08:41:26;15.30;;;9.80;;
5604;SDS011;9297;47.258;11.362;2023-12-14T08:43:53;12.07;;;9.03;;
5604;SDS011;9297;47.258;11.362;2023-12-14T08:46:20;11.33;;;9.53;;
5604;SDS011;9297;47.258;11.362;2023-12-14T08:48:47;14.07;;;10.03;;
5604;SDS011;9297;47.258;11.362;2023-12-14T08:51:14;12.10;;;9.47;;
5604;SDS011;9297;47.258;11.362;2023-12-14T08:53:41;14.73;;;8.97;;
5604;SDS011;9297;47.258;11.362;2023-12-14T08:56:09;12.30;;;8.90;;
5604;SDS011;9297;47.258;11.362;2023-12-14T08:58:37;9.83;;;8.60;;
5604;SDS011;9297;47.258;11.362;2023-12-14T09:01:04;10.03;;;9.00;;
5604;SDS011;9297;47.258;11.362;2023-12-14T09:03:31;12.33;;;9.47;;
5604;SDS011;9297;47.258;11.362;2023-12-14T09:05:59;12.90;;;8.07;;
5604;SDS011;9297;47.258;11.362;2023-12-14T09:08:26;12.30;;;8.70;;
5604;SDS011;9297;47.258;11.362;2023-12-14T09:10:53;11.60;;;9.17;;
5604;SDS011;9297;47.258;11.362;2023-12-14T09:13:20;12.57;;;9.57;;
5604;SDS011;9297;47.258;11.362;2023-12-14T09:15:48;11.97;;;8.67;;
5604;SDS011;9297;47.258;11.362;2023-12-14T09:18:15;12.03;;;9.27;;
5604;SDS011;9297;47.258;11.362;2023-12-14T09:20:42;14.53;;;9.77;;
5604;SDS011;9297;47.258;11.362;2023-12-14T09:23:09;11.77;;;8.90;;
5604;SDS011;9297;47.258;11.362;2023-12-14T09:25:36;13.80;;;8.53;;
5604;SDS011;9297;47.258;11.362;2023-12-14T09:28:03;18.03;;;9.10;;
5604;SDS011;9297;47.258;11.362;2023-12-14T09:30:30;11.87;;;9.37;;
5604;SDS011;9297;47.258;11.362;2023-12-14T09:32:59;15.43;;;8.90;;
5604;SDS011;9297;47.258;11.362;2023-12-14T09:35:27;12.80;;;9.53;;
5604;SDS011;9297;47.258;11.362;2023-12-14T09:37:54;11.13;;;9.07;;
5604;SDS011;9297;47.258;11.362;2023-12-14T09:40:21;11.60;;;8.73;;
5604;SDS011;9297;47.258;11.362;2023-12-14T09:42:48;10.20;;;7.67;;
5604;SDS011;9297;47.258;11.362;2023-12-14T09:45:16;11.67;;;8.90;;
5604;SDS011;9297;47.258;11.362;2023-12-14T09:47:44;8.57;;;7.40;;
5604;SDS011;9297;47.258;11.362;2023-12-14T09:50:14;10.07;;;8.13;;
5604;SDS011;9297;47.258;11.362;2023-12-14T09:52:41;8.80;;;7.30;;
5604;SDS011;9297;47.258;11.362;2023-12-14T09:55:08;9.53;;;7.47;;
5604;SDS011;9297;47.258;11.362;2023-12-14T09:57:36;11.07;;;8.17;;
5604;SDS011;9297;47.258;11.362;2023-12-14T10:00:04;10.50;;;8.30;;
5604;SDS011;9297;47.258;11.362;2023-12-14T10:02:32;10.90;;;8.37;;
5604;SDS011;9297;47.258;11.362;2023-12-14T10:04:59;10.93;;;7.63;;
5604;SDS011;9297;47.258;11.362;2023-12-14T10:07:28;12.07;;;8.27;;
5604;SDS011;9297;47.258;11.362;2023-12-14T10:09:58;10.87;;;8.20;;
5604;SDS011;9297;47.258;11.362;2023-12-14T10:12:39;10.93;;;8.50;;
5604;SDS011;9297;47.258;11.362;2023-12-14T10:15:17;10.10;;;7.90;;
5604;SDS011;9297;47.258;11.362;2023-12-14T10:17:44;11.10;;;8.23;;
5604;SDS011;9297;47.258;11.362;2023-12-14T10:20:12;9.97;;;7.97;;
5604;SDS011;9297;47.258;11.362;2023-12-14T10:22:40;12.67;;;8.20;;
5604;SDS011;9297;47.258;11.362;2023-12-14T10:25:10;11.50;;;8.23;;
5604;SDS011;9297;47.258;11.362;2023-12-14T10:27:37;10.07;;;8.03;;
5604;SDS011;9297;47.258;11.362;2023-12-14T10:30:05;12.67;;;8.43;;
5604;SDS011;9297;47.258;11.362;2023-12-14T10:32:33;10.73;;;7.57;;
5604;SDS011;9297;47.258;11.362;2023-12-14T10:35:01;10.83;;;7.73;;
5604;SDS011;9297;47.258;11.362;2023-12-14T10:37:28;8.63;;;7.50;;
5604;SDS011;9297;47.258;11.362;2023-12-14T10:40:00;8.57;;;7.67;;
5604;SDS011;9297;47.258;11.362;2023-12-14T10:42:28;9.17;;;7.40;;
5604;SDS011;9297;47.258;11.362;2023-12-14T10:44:56;9.53;;;7.80;;
5604;SDS011;9297;47.258;11.362;2023-12-14T10:47:43;11.83;;;7.80;;
5604;SDS011;9297;47.258;11.362;2023-12-14T10:50:13;9.57;;;7.53;;
5604;SDS011;9297;47.258;11.362;2023-12-14T10:52:41;12.03;;;8.70;;
5604;SDS011;9297;47.258;11.362;2023-12-14T10:55:18;12.17;;;8.20;;
5604;SDS011;9297;47.258;11.362;2023-12-14T10:57:51;10.20;;;8.57;;
5604;SDS011;9297;47.258;11.362;2023-12-14T11:00:19;15.40;;;10.90;;
5604;SDS011;9297;47.258;11.362;2023-12-14T11:02:46;22.37;;;11.00;;
5604;SDS011;9297;47.258;11.362;2023-12-14T11:05:14;15.00;;;9.13;;
5604;SDS011;9297;47.258;11.362;2023-12-14T11:07:46;12.10;;;9.40;;
5604;SDS011;9297;47.258;11.362;2023-12-14T11:10:21;9.17;;;7.97;;
5604;SDS011;9297;47.258;11.362;2023-12-14T11:12:50;9.53;;;7.67;;
5604;SDS011;9297;47.258;11.362;2023-12-14T11:15:27;8.20;;;6.87;;
5604;SDS011;9297;47.258;11.362;2023-12-14T11:20:49;12.77;;;8.33;;
5604;SDS011;9297;47.258;11.362;2023-12-14T11:23:17;9.47;;;7.83;;
5604;SDS011;9297;47.258;11.362;2023-12-14T11:25:56;9.87;;;7.27;;
5604;SDS011;9297;47.258;11.362;2023-12-14T11:28:25;9.77;;;7.67;;
5604;SDS011;9297;47.258;11.362;2023-12-14T11:30:54;8.87;;;6.80;;
5604;SDS011;9297;47.258;11.362;2023-12-14T11:33:22;11.10;;;7.90;;
5604;SDS011;9297;47.258;11.362;2023-12-14T11:35:50;9.80;;;7.07;;
5604;SDS011;9297;47.258;11.362;2023-12-14T11:38:18;8.83;;;7.93;;
5604;SDS011;9297;47.258;11.362;2023-12-14T11:40:45;8.57;;;7.27;;
5604;SDS011;9297;47.258;11.362;2023-12-14T11:43:14;11.13;;;8.03;;
5604;SDS011;9297;47.258;11.362;2023-12-14T11:45:42;9.80;;;7.80;;
5604;SDS011;9297;47.258;11.362;2023-12-14T11:48:10;11.03;;;8.20;;
5604;SDS011;9297;47.258;11.362;2023-12-14T11:50:39;9.43;;;8.00;;
5604;SDS011;9297;47.258;11.362;2023-12-14T11:53:08;10.97;;;8.27;;
5604;SDS011;9297;47.258;11.362;2023-12-14T11:55:37;11.67;;;8.83;;
5604;SDS011;9297;47.258;11.362;2023-12-14T11:58:05;16.73;;;10.40;;
5604;SDS011;9297;47.258;11.362;2023-12-14T12:00:34;11.13;;;9.57;;
5604;SDS011;9297;47.258;11.362;2023-12-14T12:03:08;12.47;;;9.43;;
5604;SDS011;9297;47.258;11.362;2023-12-14T12:05:39;15.40;;;10.83;;
5604;SDS011;9297;47.258;11.362;2023-12-14T12:08:08;17.93;;;11.97;;
5604;SDS011;9297;47.258;11.362;2023-12-14T12:10:36;13.43;;;10.80;;
5604;SDS011;9297;47.258;11.362;2023-12-14T12:13:04;12.83;;;9.17;;
5604;SDS011;9297;47.258;11.362;2023-12-14T12:15:35;9.80;;;8.33;;
5604;SDS011;9297;47.258;11.362;2023-12-14T12:18:03;14.57;;;9.27;;
5604;SDS011;9297;47.258;11.362;2023-12-14T12:20:32;9.93;;;8.40;;
5604;SDS011;9297;47.258;11.362;2023-12-14T12:22:59;12.20;;;8.80;;
5604;SDS011;9297;47.258;11.362;2023-12-14T12:25:26;12.67;;;8.77;;
5604;SDS011;9297;47.258;11.362;2023-12-14T12:27:54;9.20;;;8.30;;
5604;SDS011;9297;47.258;11.362;2023-12-14T12:30:21;9.97;;;7.53;;
5604;SDS011;9297;47.258;11.362;2023-12-14T12:32:50;10.97;;;8.20;;
5604;SDS011;9297;47.258;11.362;2023-12-14T12:35:17;9.17;;;7.67;;
5604;SDS011;9297;47.258;11.362;2023-12-14T12:37:45;10.97;;;7.97;;
5604;SDS011;9297;47.258;11.362;2023-12-14T12:40:12;11.17;;;9.00;;
5604;SDS011;9297;47.258;11.362;2023-12-14T12:42:39;13.87;;;8.53;;
5604;SDS011;9297;47.258;11.362;2023-12-14T12:45:07;10.13;;;8.20;;
5604;SDS011;9297;47.258;11.362;2023-12-14T12:47:34;10.50;;;8.70;;
5604;SDS011;9297;47.258;11.362;2023-12-14T12:50:04;9.80;;;8.47;;
5604;SDS011;9297;47.258;11.362;2023-12-14T12:52:32;11.70;;;8.47;;
5604;SDS011;9297;47.258;11.362;2023-12-14T12:54:59;12.50;;;8.37;;
5604;SDS011;9297;47.258;11.362;2023-12-14T12:57:27;9.57;;;8.13;;
5604;SDS011;9297;47.258;11.362;2023-12-14T12:59:54;10.90;;;8.10;;
5604;SDS011;9297;47.258;11.362;2023-12-14T13:02:22;11.73;;;9.13;;
5604;SDS011;9297;47.258;11.362;2023-12-14T13:04:49;10.70;;;8.97;;
5604;SDS011;9297;47.258;11.362;2023-12-14T13:07:18;12.33;;;9.03;;
5604;SDS011;9297;47.258;11.362;2023-12-14T13:09:45;10.03;;;8.30;;
5604;SDS011;9297;47.258;11.362;2023-12-14T13:12:12;9.37;;;6.83;;
5604;SDS011;9297;47.258;11.362;2023-12-14T13:14:39;8.50;;;6.70;;
5604;SDS011;9297;47.258;11.362;2023-12-14T13:17:07;10.27;;;7.00;;
5604;SDS011;9297;47.258;11.362;2023-12-14T13:19:34;10.97;;;7.00;;
5604;SDS011;9297;47.258;11.362;2023-12-14T13:22:01;9.43;;;6.40;;
5604;SDS011;9297;47.258;11.362;2023-12-14T13:24:30;9.07;;;6.37;;
5604;SDS011;9297;47.258;11.362;2023-12-14T13:26:57;8.07;;;6.60;;
5604;SDS011;9297;47.258;11.362;2023-12-14T13:29:24;7.50;;;6.80;;
5604;SDS011;9297;47.258;11.362;2023-12-14T13:31:52;7.30;;;5.63;;
5604;SDS011;9297;47.258;11.362;2023-12-14T13:34:19;7.07;;;4.77;;
5604;SDS011;9297;47.258;11.362;2023-12-14T13:36:46;6.23;;;5.50;;
5604;SDS011;9297;47.258;11.362;2023-12-14T13:39:13;7.63;;;6.53;;
5604;SDS011;9297;47.258;11.362;2023-12-14T13:41:41;7.90;;;6.87;;
5604;SDS011;9297;47.258;11.362;2023-12-14T13:44:16;9.10;;;7.17;;
5604;SDS011;9297;47.258;11.362;2023-12-14T13:46:43;8.70;;;6.97;;
5604;SDS011;9297;47.258;11.362;2023-12-14T13:49:11;8.17;;;6.90;;
5604;SDS011;9297;47.258;11.362;2023-12-14T13:51:38;11.60;;;7.00;;
5604;SDS011;9297;47.258;11.362;2023-12-14T13:54:05;10.47;;;7.57;;
5604;SDS011;9297;47.258;11.362;2023-12-14T13:56:32;9.00;;;6.63;;
5604;SDS011;9297;47.258;11.362;2023-12-14T13:59:01;6.03;;;5.43;;
5604;SDS011;9297;47.258;11.362;2023-12-14T14:01:28;7.70;;;5.73;;
5604;SDS011;9297;47.258;11.362;2023-12-14T14:03:55;7.50;;;6.43;;
5604;SDS011;9297;47.258;11.362;2023-12-14T14:06:23;6.27;;;5.67;;
5604;SDS011;9297;47.258;11.362;2023-12-14T14:08:50;8.37;;;6.30;;
5604;SDS011;9297;47.258;11.362;2023-12-14T14:11:17;7.23;;;6.43;;
5604;SDS011;9297;47.258;11.362;2023-12-14T14:13:45;8.27;;;6.43;;
5604;SDS011;9297;47.258;11.362;2023-12-14T14:16:13;7.30;;;6.57;;
5604;SDS011;9297;47.258;11.362;2023-12-14T14:18:40;7.87;;;7.07;;
5604;SDS011;9297;47.258;11.362;2023-12-14T14:21:07;7.80;;;6.93;;
5604;SDS011;9297;47.258;11.362;2023-12-14T14:23:35;10.03;;;7.40;;
5604;SDS011;9297;47.258;11.362;2023-12-14T14:26:02;8.90;;;6.67;;
5604;SDS011;9297;47.258;11.362;2023-12-14T14:28:29;8.77;;;7.53;;
5604;SDS011;9297;47.258;11.362;2023-12-14T14:30:56;8.20;;;6.93;;
5604;SDS011;9297;47.258;11.362;2023-12-14T14:33:25;7.40;;;6.50;;
5604;SDS011;9297;47.258;11.362;2023-12-14T14:35:52;7.43;;;6.43;;
5604;SDS011;9297;47.258;11.362;2023-12-14T14:38:19;7.10;;;6.07;;
5604;SDS011;9297;47.258;11.362;2023-12-14T14:40:47;6.67;;;5.53;;
5604;SDS011;9297;47.258;11.362;2023-12-14T14:43:14;6.17;;;5.20;;
5604;SDS011;9297;47.258;11.362;2023-12-14T14:45:41;6.07;;;5.43;;
5604;SDS011;9297;47.258;11.362;2023-12-14T14:48:08;5.97;;;5.37;;
5604;SDS011;9297;47.258;11.362;2023-12-14T14:50:37;6.77;;;5.30;;
5604;SDS011;9297;47.258;11.362;2023-12-14T14:53:04;7.93;;;6.37;;
5604;SDS011;9297;47.258;11.362;2023-12-14T14:55:31;8.00;;;6.50;;
5604;SDS011;9297;47.258;11.362;2023-12-14T14:57:58;9.07;;;7.03;;
5604;SDS011;9297;47.258;11.362;2023-12-14T15:00:25;11.73;;;7.93;;
5604;SDS011;9297;47.258;11.362;2023-12-14T15:02:53;9.00;;;6.87;;